sensor_id;sensor_type;location;lat;lon;timestamp;P1;durP1;ratioP1;P2;durP2;ratioP2
51636;SDS011;37713;53.254;6.460;2023-05-16T00:00:06;19.92;;;2.60;;
51636;SDS011;37713;53.254;6.460;2023-05-16T00:02:36;10.75;;;1.95;;
51636;SDS011;37713;53.254;6.460;2023-05-16T00:05:03;14.48;;;2.35;;
51636;SDS011;37713;53.254;6.460;2023-05-16T00:07:31;15.48;;;2.30;;
51636;SDS011;37713;53.254;6.460;2023-05-16T00:09:57;15.20;;;2.03;;
51636;SDS011;37713;53.254;6.460;2023-05-16T00:12:23;16.33;;;2.92;;
51636;SDS011;37713;53.254;6.460;2023-05-16T00:14:50;11.95;;;1.85;;
51636;SDS011;37713;53.254;6.460;2023-05-16T00:17:17;18.75;;;2.55;;
51636;SDS011;37713;53.254;6.460;2023-05-16T00:19:44;20.33;;;2.78;;
51636;SDS011;37713;53.254;6.460;2023-05-16T00:22:16;13.32;;;2.10;;
51636;SDS011;37713;53.254;6.460;2023-05-16T00:24:42;12.25;;;2.08;;
51636;SDS011;37713;53.254;6.460;2023-05-16T00:27:08;15.98;;;2.25;;
51636;SDS011;37713;53.254;6.460;2023-05-16T00:29:34;14.25;;;2.03;;
51636;SDS011;37713;53.254;6.460;2023-05-16T00:32:00;13.48;;;1.88;;
51636;SDS011;37713;53.254;6.460;2023-05-16T00:34:26;13.07;;;2.20;;
51636;SDS011;37713;53.254;6.460;2023-05-16T00:36:52;17.58;;;2.67;;
51636;SDS011;37713;53.254;6.460;2023-05-16T00:39:18;17.10;;;2.35;;
51636;SDS011;37713;53.254;6.460;2023-05-16T00:41:44;14.88;;;1.77;;
51636;SDS011;37713;53.254;6.460;2023-05-16T00:44:10;15.48;;;1.83;;
51636;SDS011;37713;53.254;6.460;2023-05-16T00:46:36;13.30;;;2.15;;
51636;SDS011;37713;53.254;6.460;2023-05-16T00:49:02;14.73;;;2.08;;
51636;SDS011;37713;53.254;6.460;2023-05-16T00:51:29;12.65;;;2.03;;
51636;SDS011;37713;53.254;6.460;2023-05-16T00:53:55;12.85;;;2.15;;
51636;SDS011;37713;53.254;6.460;2023-05-16T00:56:21;12.77;;;2.08;;
51636;SDS011;37713;53.254;6.460;2023-05-16T00:58:47;10.68;;;2.08;;
51636;SDS011;37713;53.254;6.460;2023-05-16T01:01:14;11.75;;;2.05;;
51636;SDS011;37713;53.254;6.460;2023-05-16T01:03:42;19.45;;;2.38;;
51636;SDS011;37713;53.254;6.460;2023-05-16T01:06:09;12.30;;;2.00;;
51636;SDS011;37713;53.254;6.460;2023-05-16T01:08:36;14.98;;;2.20;;
51636;SDS011;37713;53.254;6.460;2023-05-16T01:11:07;15.20;;;2.13;;
51636;SDS011;37713;53.254;6.460;2023-05-16T01:13:54;17.67;;;2.33;;
51636;SDS011;37713;53.254;6.460;2023-05-16T01:16:41;14.63;;;1.90;;
51636;SDS011;37713;53.254;6.460;2023-05-16T01:28:10;15.80;;;2.35;;
51636;SDS011;37713;53.254;6.460;2023-05-16T01:30:40;21.23;;;2.65;;
51636;SDS011;37713;53.254;6.460;2023-05-16T01:33:06;18.42;;;3.53;;
51636;SDS011;37713;53.254;6.460;2023-05-16T01:35:32;16.45;;;3.05;;
51636;SDS011;37713;53.254;6.460;2023-05-16T01:43:45;17.80;;;2.25;;
51636;SDS011;37713;53.254;6.460;2023-05-16T01:46:17;15.47;;;2.03;;
51636;SDS011;37713;53.254;6.460;2023-05-16T01:51:36;13.95;;;2.20;;
51636;SDS011;37713;53.254;6.460;2023-05-16T01:54:06;11.20;;;1.80;;
51636;SDS011;37713;53.254;6.460;2023-05-16T01:56:36;12.68;;;2.15;;
51636;SDS011;37713;53.254;6.460;2023-05-16T01:59:03;15.35;;;2.30;;
51636;SDS011;37713;53.254;6.460;2023-05-16T02:01:30;14.02;;;2.88;;
51636;SDS011;37713;53.254;6.460;2023-05-16T02:03:56;15.15;;;2.35;;
51636;SDS011;37713;53.254;6.460;2023-05-16T02:06:22;11.40;;;2.03;;
51636;SDS011;37713;53.254;6.460;2023-05-16T02:08:49;15.52;;;2.67;;
51636;SDS011;37713;53.254;6.460;2023-05-16T02:11:16;13.90;;;2.80;;
51636;SDS011;37713;53.254;6.460;2023-05-16T02:13:41;13.10;;;1.92;;
51636;SDS011;37713;53.254;6.460;2023-05-16T02:16:09;16.50;;;2.40;;
51636;SDS011;37713;53.254;6.460;2023-05-16T02:18:35;13.93;;;2.47;;
51636;SDS011;37713;53.254;6.460;2023-05-16T02:21:01;12.60;;;2.85;;
51636;SDS011;37713;53.254;6.460;2023-05-16T02:23:27;11.80;;;2.20;;
51636;SDS011;37713;53.254;6.460;2023-05-16T02:25:52;18.00;;;2.35;;
51636;SDS011;37713;53.254;6.460;2023-05-16T02:28:18;20.83;;;2.70;;
51636;SDS011;37713;53.254;6.460;2023-05-16T02:30:44;18.60;;;2.42;;
51636;SDS011;37713;53.254;6.460;2023-05-16T02:33:10;13.02;;;2.45;;
51636;SDS011;37713;53.254;6.460;2023-05-16T02:35:35;15.05;;;2.80;;
51636;SDS011;37713;53.254;6.460;2023-05-16T02:38:01;13.98;;;2.42;;
51636;SDS011;37713;53.254;6.460;2023-05-16T02:40:27;18.13;;;2.63;;
51636;SDS011;37713;53.254;6.460;2023-05-16T02:42:53;17.30;;;2.05;;
51636;SDS011;37713;53.254;6.460;2023-05-16T02:45:18;11.63;;;2.00;;
51636;SDS011;37713;53.254;6.460;2023-05-16T02:47:44;13.68;;;2.40;;
51636;SDS011;37713;53.254;6.460;2023-05-16T02:50:10;15.63;;;2.45;;
51636;SDS011;37713;53.254;6.460;2023-05-16T02:52:36;14.48;;;2.30;;
51636;SDS011;37713;53.254;6.460;2023-05-16T02:55:02;15.10;;;2.45;;
51636;SDS011;37713;53.254;6.460;2023-05-16T02:57:28;18.63;;;2.63;;
51636;SDS011;37713;53.254;6.460;2023-05-16T02:59:53;14.70;;;2.25;;
51636;SDS011;37713;53.254;6.460;2023-05-16T03:02:19;13.27;;;2.28;;
51636;SDS011;37713;53.254;6.460;2023-05-16T03:04:46;19.55;;;2.83;;
51636;SDS011;37713;53.254;6.460;2023-05-16T03:07:11;12.48;;;2.45;;
51636;SDS011;37713;53.254;6.460;2023-05-16T03:09:37;11.35;;;2.55;;
51636;SDS011;37713;53.254;6.460;2023-05-16T03:12:03;13.63;;;2.33;;
51636;SDS011;37713;53.254;6.460;2023-05-16T03:14:29;16.23;;;1.92;;
51636;SDS011;37713;53.254;6.460;2023-05-16T03:16:55;13.18;;;2.20;;
51636;SDS011;37713;53.254;6.460;2023-05-16T03:19:20;16.80;;;2.67;;
51636;SDS011;37713;53.254;6.460;2023-05-16T03:21:46;15.90;;;2.10;;
51636;SDS011;37713;53.254;6.460;2023-05-16T03:24:12;17.02;;;2.47;;
51636;SDS011;37713;53.254;6.460;2023-05-16T03:26:38;16.70;;;2.40;;
51636;SDS011;37713;53.254;6.460;2023-05-16T03:29:04;15.45;;;2.22;;
51636;SDS011;37713;53.254;6.460;2023-05-16T03:31:30;14.35;;;2.15;;
51636;SDS011;37713;53.254;6.460;2023-05-16T03:33:56;16.05;;;2.40;;
51636;SDS011;37713;53.254;6.460;2023-05-16T03:36:22;20.05;;;2.53;;
51636;SDS011;37713;53.254;6.460;2023-05-16T03:38:48;13.95;;;2.45;;
51636;SDS011;37713;53.254;6.460;2023-05-16T03:41:14;14.43;;;2.35;;
51636;SDS011;37713;53.254;6.460;2023-05-16T03:43:40;15.95;;;2.10;;
51636;SDS011;37713;53.254;6.460;2023-05-16T03:46:06;7.07;;;2.00;;
51636;SDS011;37713;53.254;6.460;2023-05-16T03:48:32;11.40;;;1.95;;
51636;SDS011;37713;53.254;6.460;2023-05-16T03:50:58;15.23;;;2.13;;
51636;SDS011;37713;53.254;6.460;2023-05-16T03:53:23;15.82;;;1.88;;
51636;SDS011;37713;53.254;6.460;2023-05-16T03:55:49;16.73;;;2.30;;
51636;SDS011;37713;53.254;6.460;2023-05-16T03:58:15;14.57;;;2.00;;
51636;SDS011;37713;53.254;6.460;2023-05-16T04:00:41;9.75;;;2.17;;
51636;SDS011;37713;53.254;6.460;2023-05-16T04:03:07;14.93;;;2.15;;
51636;SDS011;37713;53.254;6.460;2023-05-16T04:05:33;16.52;;;2.25;;
51636;SDS011;37713;53.254;6.460;2023-05-16T04:07:58;13.98;;;2.33;;
51636;SDS011;37713;53.254;6.460;2023-05-16T04:10:24;10.55;;;2.08;;
51636;SDS011;37713;53.254;6.460;2023-05-16T04:12:50;12.45;;;1.80;;
51636;SDS011;37713;53.254;6.460;2023-05-16T04:15:16;13.75;;;1.98;;
51636;SDS011;37713;53.254;6.460;2023-05-16T04:17:42;16.75;;;2.20;;
51636;SDS011;37713;53.254;6.460;2023-05-16T04:20:08;19.80;;;2.75;;
51636;SDS011;37713;53.254;6.460;2023-05-16T04:22:34;8.32;;;2.10;;
51636;SDS011;37713;53.254;6.460;2023-05-16T04:25:00;12.60;;;2.22;;
51636;SDS011;37713;53.254;6.460;2023-05-16T04:27:26;12.27;;;1.90;;
51636;SDS011;37713;53.254;6.460;2023-05-16T04:29:52;11.48;;;1.77;;
51636;SDS011;37713;53.254;6.460;2023-05-16T04:32:17;13.02;;;2.40;;
51636;SDS011;37713;53.254;6.460;2023-05-16T04:34:44;11.13;;;1.92;;
51636;SDS011;37713;53.254;6.460;2023-05-16T04:37:10;12.00;;;1.75;;
51636;SDS011;37713;53.254;6.460;2023-05-16T04:39:36;13.50;;;2.00;;
51636;SDS011;37713;53.254;6.460;2023-05-16T04:42:02;10.25;;;2.22;;
51636;SDS011;37713;53.254;6.460;2023-05-16T04:44:28;12.50;;;2.20;;
51636;SDS011;37713;53.254;6.460;2023-05-16T04:46:54;16.75;;;2.17;;
51636;SDS011;37713;53.254;6.460;2023-05-16T04:49:20;10.23;;;1.92;;
51636;SDS011;37713;53.254;6.460;2023-05-16T04:51:47;11.77;;;1.90;;
51636;SDS011;37713;53.254;6.460;2023-05-16T04:54:13;13.13;;;2.10;;
51636;SDS011;37713;53.254;6.460;2023-05-16T04:56:39;9.45;;;1.50;;
51636;SDS011;37713;53.254;6.460;2023-05-16T04:59:05;16.83;;;2.10;;
51636;SDS011;37713;53.254;6.460;2023-05-16T05:01:31;12.85;;;1.70;;
51636;SDS011;37713;53.254;6.460;2023-05-16T05:03:57;12.20;;;2.38;;
51636;SDS011;37713;53.254;6.460;2023-05-16T05:06:22;9.85;;;1.48;;
51636;SDS011;37713;53.254;6.460;2023-05-16T05:08:48;11.38;;;1.80;;
51636;SDS011;37713;53.254;6.460;2023-05-16T05:11:14;10.02;;;1.48;;
51636;SDS011;37713;53.254;6.460;2023-05-16T05:13:40;9.80;;;1.60;;
51636;SDS011;37713;53.254;6.460;2023-05-16T05:16:06;18.42;;;2.05;;
51636;SDS011;37713;53.254;6.460;2023-05-16T05:18:32;16.83;;;1.77;;
51636;SDS011;37713;53.254;6.460;2023-05-16T05:20:58;8.65;;;1.52;;
51636;SDS011;37713;53.254;6.460;2023-05-16T05:23:24;6.72;;;1.42;;
51636;SDS011;37713;53.254;6.460;2023-05-16T05:25:50;9.23;;;1.70;;
51636;SDS011;37713;53.254;6.460;2023-05-16T05:28:16;13.23;;;1.90;;
51636;SDS011;37713;53.254;6.460;2023-05-16T05:30:42;10.70;;;1.98;;
51636;SDS011;37713;53.254;6.460;2023-05-16T05:33:09;13.98;;;1.83;;
51636;SDS011;37713;53.254;6.460;2023-05-16T05:35:35;12.75;;;2.22;;
51636;SDS011;37713;53.254;6.460;2023-05-16T05:38:01;12.18;;;1.50;;
51636;SDS011;37713;53.254;6.460;2023-05-16T05:40:28;12.73;;;1.77;;
51636;SDS011;37713;53.254;6.460;2023-05-16T05:42:54;14.05;;;2.00;;
51636;SDS011;37713;53.254;6.460;2023-05-16T05:45:19;10.10;;;1.58;;
51636;SDS011;37713;53.254;6.460;2023-05-16T05:47:45;9.88;;;1.88;;
51636;SDS011;37713;53.254;6.460;2023-05-16T05:50:11;10.38;;;2.03;;
51636;SDS011;37713;53.254;6.460;2023-05-16T05:52:38;14.95;;;2.53;;
51636;SDS011;37713;53.254;6.460;2023-05-16T05:55:04;14.02;;;2.25;;
51636;SDS011;37713;53.254;6.460;2023-05-16T05:57:30;11.85;;;1.70;;
51636;SDS011;37713;53.254;6.460;2023-05-16T05:59:56;17.77;;;2.65;;
51636;SDS011;37713;53.254;6.460;2023-05-16T06:02:22;9.15;;;1.50;;
51636;SDS011;37713;53.254;6.460;2023-05-16T06:04:48;15.75;;;1.80;;
51636;SDS011;37713;53.254;6.460;2023-05-16T06:07:14;9.35;;;1.38;;
51636;SDS011;37713;53.254;6.460;2023-05-16T06:09:41;11.23;;;1.50;;
51636;SDS011;37713;53.254;6.460;2023-05-16T06:12:07;8.40;;;1.42;;
51636;SDS011;37713;53.254;6.460;2023-05-16T06:14:33;9.60;;;1.10;;
51636;SDS011;37713;53.254;6.460;2023-05-16T06:16:59;8.40;;;1.20;;
51636;SDS011;37713;53.254;6.460;2023-05-16T06:19:25;6.63;;;1.30;;
51636;SDS011;37713;53.254;6.460;2023-05-16T06:21:51;7.18;;;1.10;;
51636;SDS011;37713;53.254;6.460;2023-05-16T06:24:16;5.20;;;1.17;;
51636;SDS011;37713;53.254;6.460;2023-05-16T06:26:42;4.63;;;1.17;;
51636;SDS011;37713;53.254;6.460;2023-05-16T06:29:13;8.77;;;1.33;;
51636;SDS011;37713;53.254;6.460;2023-05-16T06:31:39;10.13;;;1.70;;
51636;SDS011;37713;53.254;6.460;2023-05-16T06:34:05;9.27;;;1.70;;
51636;SDS011;37713;53.254;6.460;2023-05-16T06:36:31;12.32;;;1.70;;
51636;SDS011;37713;53.254;6.460;2023-05-16T06:38:57;9.52;;;1.63;;
51636;SDS011;37713;53.254;6.460;2023-05-16T06:41:22;6.85;;;1.50;;
51636;SDS011;37713;53.254;6.460;2023-05-16T06:43:48;8.93;;;1.40;;
51636;SDS011;37713;53.254;6.460;2023-05-16T06:46:14;9.15;;;1.88;;
51636;SDS011;37713;53.254;6.460;2023-05-16T06:48:40;6.00;;;1.23;;
51636;SDS011;37713;53.254;6.460;2023-05-16T06:51:06;7.93;;;1.45;;
51636;SDS011;37713;53.254;6.460;2023-05-16T06:53:32;8.13;;;1.38;;
51636;SDS011;37713;53.254;6.460;2023-05-16T06:55:57;7.30;;;1.30;;
51636;SDS011;37713;53.254;6.460;2023-05-16T06:58:23;9.30;;;1.45;;
51636;SDS011;37713;53.254;6.460;2023-05-16T07:00:49;10.05;;;1.98;;
51636;SDS011;37713;53.254;6.460;2023-05-16T07:03:15;9.30;;;1.90;;
51636;SDS011;37713;53.254;6.460;2023-05-16T07:05:41;8.55;;;1.67;;
51636;SDS011;37713;53.254;6.460;2023-05-16T07:08:10;9.85;;;1.42;;
51636;SDS011;37713;53.254;6.460;2023-05-16T07:10:36;8.95;;;1.88;;
51636;SDS011;37713;53.254;6.460;2023-05-16T07:13:05;8.27;;;1.60;;
51636;SDS011;37713;53.254;6.460;2023-05-16T07:15:31;8.30;;;1.40;;
51636;SDS011;37713;53.254;6.460;2023-05-16T07:17:57;10.55;;;1.90;;
51636;SDS011;37713;53.254;6.460;2023-05-16T07:20:23;8.15;;;1.80;;
51636;SDS011;37713;53.254;6.460;2023-05-16T07:22:49;13.95;;;2.22;;
51636;SDS011;37713;53.254;6.460;2023-05-16T07:25:14;10.52;;;1.70;;
51636;SDS011;37713;53.254;6.460;2023-05-16T07:27:41;7.15;;;1.48;;
51636;SDS011;37713;53.254;6.460;2023-05-16T07:30:09;10.43;;;1.50;;
51636;SDS011;37713;53.254;6.460;2023-05-16T07:32:35;9.05;;;1.85;;
51636;SDS011;37713;53.254;6.460;2023-05-16T07:35:02;12.35;;;1.85;;
51636;SDS011;37713;53.254;6.460;2023-05-16T07:37:28;11.00;;;1.90;;
51636;SDS011;37713;53.254;6.460;2023-05-16T07:39:55;11.27;;;1.67;;
51636;SDS011;37713;53.254;6.460;2023-05-16T07:42:20;11.63;;;1.88;;
51636;SDS011;37713;53.254;6.460;2023-05-16T07:44:46;13.00;;;1.95;;
51636;SDS011;37713;53.254;6.460;2023-05-16T07:47:12;7.63;;;1.50;;
51636;SDS011;37713;53.254;6.460;2023-05-16T07:49:38;10.68;;;1.70;;
51636;SDS011;37713;53.254;6.460;2023-05-16T07:52:04;9.13;;;1.60;;
51636;SDS011;37713;53.254;6.460;2023-05-16T07:54:30;8.10;;;1.42;;
51636;SDS011;37713;53.254;6.460;2023-05-16T07:56:57;10.18;;;1.52;;
51636;SDS011;37713;53.254;6.460;2023-05-16T07:59:23;9.00;;;1.27;;
51636;SDS011;37713;53.254;6.460;2023-05-16T08:01:49;7.65;;;1.40;;
51636;SDS011;37713;53.254;6.460;2023-05-16T08:04:15;6.05;;;1.38;;
51636;SDS011;37713;53.254;6.460;2023-05-16T08:06:41;9.65;;;1.90;;
51636;SDS011;37713;53.254;6.460;2023-05-16T08:09:07;9.57;;;1.20;;
51636;SDS011;37713;53.254;6.460;2023-05-16T08:11:33;4.00;;;0.90;;
51636;SDS011;37713;53.254;6.460;2023-05-16T08:14:00;4.25;;;0.70;;
51636;SDS011;37713;53.254;6.460;2023-05-16T08:16:26;5.93;;;1.02;;
51636;SDS011;37713;53.254;6.460;2023-05-16T08:18:51;7.05;;;1.20;;
51636;SDS011;37713;53.254;6.460;2023-05-16T08:21:17;9.48;;;1.45;;
51636;SDS011;37713;53.254;6.460;2023-05-16T08:23:43;9.27;;;1.63;;
51636;SDS011;37713;53.254;6.460;2023-05-16T08:26:09;13.60;;;1.90;;
51636;SDS011;37713;53.254;6.460;2023-05-16T08:28:34;11.20;;;1.65;;
51636;SDS011;37713;53.254;6.460;2023-05-16T08:31:00;7.43;;;1.58;;
51636;SDS011;37713;53.254;6.460;2023-05-16T08:33:26;9.57;;;1.77;;
51636;SDS011;37713;53.254;6.460;2023-05-16T08:35:51;9.25;;;1.85;;
51636;SDS011;37713;53.254;6.460;2023-05-16T08:38:18;10.18;;;1.60;;
51636;SDS011;37713;53.254;6.460;2023-05-16T08:40:43;11.07;;;1.77;;
51636;SDS011;37713;53.254;6.460;2023-05-16T08:43:09;9.85;;;1.77;;
51636;SDS011;37713;53.254;6.460;2023-05-16T08:45:36;10.43;;;1.73;;
51636;SDS011;37713;53.254;6.460;2023-05-16T08:48:01;9.75;;;1.40;;
51636;SDS011;37713;53.254;6.460;2023-05-16T08:50:30;10.18;;;1.80;;
51636;SDS011;37713;53.254;6.460;2023-05-16T08:52:57;9.70;;;1.55;;
51636;SDS011;37713;53.254;6.460;2023-05-16T08:55:29;9.70;;;1.83;;
51636;SDS011;37713;53.254;6.460;2023-05-16T08:57:55;9.98;;;1.50;;
51636;SDS011;37713;53.254;6.460;2023-05-16T09:00:22;9.00;;;1.60;;
51636;SDS011;37713;53.254;6.460;2023-05-16T09:02:48;12.18;;;1.88;;
51636;SDS011;37713;53.254;6.460;2023-05-16T09:05:15;11.40;;;1.80;;
51636;SDS011;37713;53.254;6.460;2023-05-16T09:07:42;10.93;;;1.67;;
51636;SDS011;37713;53.254;6.460;2023-05-16T09:10:09;11.88;;;1.95;;
51636;SDS011;37713;53.254;6.460;2023-05-16T09:12:36;10.60;;;1.45;;
51636;SDS011;37713;53.254;6.460;2023-05-16T09:15:04;11.75;;;1.77;;
51636;SDS011;37713;53.254;6.460;2023-05-16T09:17:35;11.52;;;1.60;;
51636;SDS011;37713;53.254;6.460;2023-05-16T09:22:39;9.13;;;1.67;;
51636;SDS011;37713;53.254;6.460;2023-05-16T09:25:15;11.20;;;1.77;;
51636;SDS011;37713;53.254;6.460;2023-05-16T09:27:41;8.63;;;1.70;;
51636;SDS011;37713;53.254;6.460;2023-05-16T09:30:07;11.02;;;1.73;;
51636;SDS011;37713;53.254;6.460;2023-05-16T09:32:33;11.18;;;1.63;;
51636;SDS011;37713;53.254;6.460;2023-05-16T09:34:59;9.15;;;1.50;;
51636;SDS011;37713;53.254;6.460;2023-05-16T09:37:25;8.77;;;1.60;;
51636;SDS011;37713;53.254;6.460;2023-05-16T09:39:52;13.15;;;1.70;;
51636;SDS011;37713;53.254;6.460;2023-05-16T09:42:21;10.65;;;1.58;;
51636;SDS011;37713;53.254;6.460;2023-05-16T09:44:51;6.32;;;1.35;;
51636;SDS011;37713;53.254;6.460;2023-05-16T09:47:19;9.48;;;1.88;;
51636;SDS011;37713;53.254;6.460;2023-05-16T09:49:46;9.18;;;1.40;;
51636;SDS011;37713;53.254;6.460;2023-05-16T09:52:16;9.23;;;1.50;;
51636;SDS011;37713;53.254;6.460;2023-05-16T09:54:42;11.95;;;1.83;;
51636;SDS011;37713;53.254;6.460;2023-05-16T09:57:10;10.13;;;1.80;;
51636;SDS011;37713;53.254;6.460;2023-05-16T09:59:39;10.32;;;1.50;;
51636;SDS011;37713;53.254;6.460;2023-05-16T10:02:05;9.38;;;1.90;;
51636;SDS011;37713;53.254;6.460;2023-05-16T10:04:34;9.73;;;2.05;;
51636;SDS011;37713;53.254;6.460;2023-05-16T10:07:02;11.07;;;1.43;;
51636;SDS011;37713;53.254;6.460;2023-05-16T10:09:30;7.03;;;1.23;;
51636;SDS011;37713;53.254;6.460;2023-05-16T10:11:57;8.45;;;1.42;;
51636;SDS011;37713;53.254;6.460;2023-05-16T10:14:28;9.07;;;1.27;;
51636;SDS011;37713;53.254;6.460;2023-05-16T10:16:58;8.63;;;1.65;;
51636;SDS011;37713;53.254;6.460;2023-05-16T10:19:25;10.40;;;1.80;;
51636;SDS011;37713;53.254;6.460;2023-05-16T10:21:53;9.95;;;1.52;;
51636;SDS011;37713;53.254;6.460;2023-05-16T10:24:28;11.52;;;2.00;;
51636;SDS011;37713;53.254;6.460;2023-05-16T10:26:58;10.23;;;1.13;;
51636;SDS011;37713;53.254;6.460;2023-05-16T10:29:24;11.05;;;1.50;;
51636;SDS011;37713;53.254;6.460;2023-05-16T10:31:50;9.45;;;1.70;;
51636;SDS011;37713;53.254;6.460;2023-05-16T10:34:17;13.52;;;1.60;;
51636;SDS011;37713;53.254;6.460;2023-05-16T10:36:43;8.77;;;1.50;;
51636;SDS011;37713;53.254;6.460;2023-05-16T10:39:10;10.30;;;1.45;;
51636;SDS011;37713;53.254;6.460;2023-05-16T10:41:37;5.05;;;1.40;;
51636;SDS011;37713;53.254;6.460;2023-05-16T10:44:03;7.55;;;1.30;;
51636;SDS011;37713;53.254;6.460;2023-05-16T10:46:36;8.48;;;1.33;;
51636;SDS011;37713;53.254;6.460;2023-05-16T10:49:18;8.48;;;1.40;;
51636;SDS011;37713;53.254;6.460;2023-05-16T10:52:04;9.30;;;1.42;;
51636;SDS011;37713;53.254;6.460;2023-05-16T10:59:38;10.00;;;1.55;;
51636;SDS011;37713;53.254;6.460;2023-05-16T11:04:59;8.40;;;1.40;;
51636;SDS011;37713;53.254;6.460;2023-05-16T11:07:30;7.43;;;1.25;;
51636;SDS011;37713;53.254;6.460;2023-05-16T11:10:02;8.10;;;1.45;;
51636;SDS011;37713;53.254;6.460;2023-05-16T11:12:37;8.27;;;1.55;;
51636;SDS011;37713;53.254;6.460;2023-05-16T11:15:22;8.45;;;1.67;;
51636;SDS011;37713;53.254;6.460;2023-05-16T11:17:50;9.10;;;1.58;;
51636;SDS011;37713;53.254;6.460;2023-05-16T11:20:32;8.48;;;1.77;;
51636;SDS011;37713;53.254;6.460;2023-05-16T11:25:53;10.70;;;1.90;;
51636;SDS011;37713;53.254;6.460;2023-05-16T11:28:21;10.48;;;2.05;;
51636;SDS011;37713;53.254;6.460;2023-05-16T11:30:50;12.32;;;1.90;;
51636;SDS011;37713;53.254;6.460;2023-05-16T11:33:19;9.95;;;1.75;;
51636;SDS011;37713;53.254;6.460;2023-05-16T11:35:58;12.55;;;1.55;;
51636;SDS011;37713;53.254;6.460;2023-05-16T11:38:32;10.07;;;1.90;;
51636;SDS011;37713;53.254;6.460;2023-05-16T11:41:05;13.80;;;1.80;;
51636;SDS011;37713;53.254;6.460;2023-05-16T11:43:42;10.15;;;2.13;;
51636;SDS011;37713;53.254;6.460;2023-05-16T11:46:12;9.25;;;2.10;;
51636;SDS011;37713;53.254;6.460;2023-05-16T11:48:40;9.88;;;2.10;;
51636;SDS011;37713;53.254;6.460;2023-05-16T11:51:06;10.57;;;2.13;;
51636;SDS011;37713;53.254;6.460;2023-05-16T11:53:33;9.45;;;2.08;;
51636;SDS011;37713;53.254;6.460;2023-05-16T11:55:59;7.85;;;2.08;;
51636;SDS011;37713;53.254;6.460;2023-05-16T11:58:26;10.75;;;2.75;;
51636;SDS011;37713;53.254;6.460;2023-05-16T12:00:52;9.90;;;2.58;;
51636;SDS011;37713;53.254;6.460;2023-05-16T12:03:18;11.27;;;2.42;;
51636;SDS011;37713;53.254;6.460;2023-05-16T12:05:51;11.02;;;2.65;;
51636;SDS011;37713;53.254;6.460;2023-05-16T12:08:21;10.55;;;2.10;;
51636;SDS011;37713;53.254;6.460;2023-05-16T12:10:50;8.80;;;1.95;;
51636;SDS011;37713;53.254;6.460;2023-05-16T12:13:17;8.50;;;2.25;;
51636;SDS011;37713;53.254;6.460;2023-05-16T12:15:45;10.52;;;2.67;;
51636;SDS011;37713;53.254;6.460;2023-05-16T12:18:11;9.70;;;2.20;;
51636;SDS011;37713;53.254;6.460;2023-05-16T12:20:37;8.30;;;2.13;;
51636;SDS011;37713;53.254;6.460;2023-05-16T12:23:04;10.68;;;2.50;;
51636;SDS011;37713;53.254;6.460;2023-05-16T12:25:34;10.02;;;2.33;;
51636;SDS011;37713;53.254;6.460;2023-05-16T12:28:02;15.57;;;2.78;;
51636;SDS011;37713;53.254;6.460;2023-05-16T12:30:30;12.13;;;2.75;;
51636;SDS011;37713;53.254;6.460;2023-05-16T12:33:07;9.27;;;2.38;;
51636;SDS011;37713;53.254;6.460;2023-05-16T12:35:34;10.30;;;2.40;;
51636;SDS011;37713;53.254;6.460;2023-05-16T12:38:05;9.98;;;2.88;;
51636;SDS011;37713;53.254;6.460;2023-05-16T12:40:35;10.60;;;2.83;;
51636;SDS011;37713;53.254;6.460;2023-05-16T12:43:03;8.23;;;2.70;;
51636;SDS011;37713;53.254;6.460;2023-05-16T12:45:36;8.52;;;3.22;;
51636;SDS011;37713;53.254;6.460;2023-05-16T12:48:10;12.65;;;3.25;;
51636;SDS011;37713;53.254;6.460;2023-05-16T12:50:38;8.18;;;2.88;;
51636;SDS011;37713;53.254;6.460;2023-05-16T12:53:09;8.38;;;2.47;;
51636;SDS011;37713;53.254;6.460;2023-05-16T12:55:36;7.72;;;2.47;;
51636;SDS011;37713;53.254;6.460;2023-05-16T12:58:02;12.43;;;3.10;;
51636;SDS011;37713;53.254;6.460;2023-05-16T13:00:28;11.13;;;2.90;;
51636;SDS011;37713;53.254;6.460;2023-05-16T13:02:55;12.45;;;3.47;;
51636;SDS011;37713;53.254;6.460;2023-05-16T13:05:21;10.88;;;2.67;;
51636;SDS011;37713;53.254;6.460;2023-05-16T13:07:47;11.07;;;2.65;;
51636;SDS011;37713;53.254;6.460;2023-05-16T13:10:16;8.68;;;2.75;;
51636;SDS011;37713;53.254;6.460;2023-05-16T13:12:42;9.00;;;2.40;;
51636;SDS011;37713;53.254;6.460;2023-05-16T13:15:09;8.02;;;2.80;;
51636;SDS011;37713;53.254;6.460;2023-05-16T13:17:36;8.95;;;2.53;;
51636;SDS011;37713;53.254;6.460;2023-05-16T13:20:03;9.18;;;2.20;;
51636;SDS011;37713;53.254;6.460;2023-05-16T13:22:40;5.95;;;2.10;;
51636;SDS011;37713;53.254;6.460;2023-05-16T13:25:08;6.63;;;1.90;;
51636;SDS011;37713;53.254;6.460;2023-05-16T13:27:34;6.80;;;2.42;;
51636;SDS011;37713;53.254;6.460;2023-05-16T13:30:01;7.65;;;2.88;;
51636;SDS011;37713;53.254;6.460;2023-05-16T13:32:28;9.95;;;3.28;;
51636;SDS011;37713;53.254;6.460;2023-05-16T13:34:53;6.13;;;2.38;;
51636;SDS011;37713;53.254;6.460;2023-05-16T13:37:19;8.10;;;2.60;;
51636;SDS011;37713;53.254;6.460;2023-05-16T13:39:48;7.93;;;2.65;;
51636;SDS011;37713;53.254;6.460;2023-05-16T13:42:14;7.18;;;2.55;;
51636;SDS011;37713;53.254;6.460;2023-05-16T13:44:40;10.85;;;2.92;;
51636;SDS011;37713;53.254;6.460;2023-05-16T13:47:07;11.05;;;2.80;;
51636;SDS011;37713;53.254;6.460;2023-05-16T13:49:32;10.38;;;3.13;;
51636;SDS011;37713;53.254;6.460;2023-05-16T13:51:58;10.45;;;2.92;;
51636;SDS011;37713;53.254;6.460;2023-05-16T13:54:25;10.48;;;2.97;;
51636;SDS011;37713;53.254;6.460;2023-05-16T13:56:51;8.43;;;2.60;;
51636;SDS011;37713;53.254;6.460;2023-05-16T13:59:18;8.88;;;3.13;;
51636;SDS011;37713;53.254;6.460;2023-05-16T14:01:43;7.35;;;2.42;;
51636;SDS011;37713;53.254;6.460;2023-05-16T14:04:09;11.05;;;2.80;;
51636;SDS011;37713;53.254;6.460;2023-05-16T14:06:35;7.50;;;2.83;;
51636;SDS011;37713;53.254;6.460;2023-05-16T14:09:01;6.90;;;2.60;;
51636;SDS011;37713;53.254;6.460;2023-05-16T14:11:28;9.88;;;2.67;;
51636;SDS011;37713;53.254;6.460;2023-05-16T14:13:53;7.28;;;2.40;;
51636;SDS011;37713;53.254;6.460;2023-05-16T14:16:19;9.80;;;2.22;;
51636;SDS011;37713;53.254;6.460;2023-05-16T14:18:45;10.80;;;2.50;;
51636;SDS011;37713;53.254;6.460;2023-05-16T14:21:11;7.28;;;2.20;;
51636;SDS011;37713;53.254;6.460;2023-05-16T14:23:37;9.70;;;2.67;;
51636;SDS011;37713;53.254;6.460;2023-05-16T14:26:04;11.80;;;2.63;;
51636;SDS011;37713;53.254;6.460;2023-05-16T14:28:30;12.32;;;2.60;;
51636;SDS011;37713;53.254;6.460;2023-05-16T14:30:57;11.90;;;2.72;;
51636;SDS011;37713;53.254;6.460;2023-05-16T14:33:23;9.10;;;2.75;;
51636;SDS011;37713;53.254;6.460;2023-05-16T14:35:50;8.82;;;2.53;;
51636;SDS011;37713;53.254;6.460;2023-05-16T14:38:16;9.40;;;2.67;;
51636;SDS011;37713;53.254;6.460;2023-05-16T14:40:42;7.18;;;2.15;;
51636;SDS011;37713;53.254;6.460;2023-05-16T14:43:08;13.38;;;3.00;;
51636;SDS011;37713;53.254;6.460;2023-05-16T14:45:34;10.45;;;2.20;;
51636;SDS011;37713;53.254;6.460;2023-05-16T14:47:59;8.57;;;2.10;;
51636;SDS011;37713;53.254;6.460;2023-05-16T14:50:26;8.45;;;1.67;;
51636;SDS011;37713;53.254;6.460;2023-05-16T14:52:52;8.10;;;1.70;;
51636;SDS011;37713;53.254;6.460;2023-05-16T14:55:17;7.03;;;1.52;;
51636;SDS011;37713;53.254;6.460;2023-05-16T14:57:44;9.88;;;1.42;;
51636;SDS011;37713;53.254;6.460;2023-05-16T15:00:11;9.10;;;1.80;;
51636;SDS011;37713;53.254;6.460;2023-05-16T15:02:39;5.50;;;1.63;;
51636;SDS011;37713;53.254;6.460;2023-05-16T15:05:05;9.50;;;1.55;;
51636;SDS011;37713;53.254;6.460;2023-05-16T15:07:31;6.47;;;1.42;;
51636;SDS011;37713;53.254;6.460;2023-05-16T15:09:56;7.13;;;1.55;;